sensor_id;sensor_type;location;lat;lon;timestamp;temperature;humidity
25877;DHT22;13692;47.480;19.216;2023-03-01T00:01:17;5.40;99.90
25877;DHT22;13692;47.480;19.216;2023-03-01T00:03:45;5.40;99.90
25877;DHT22;13692;47.480;19.216;2023-03-01T00:06:12;5.40;99.90
25877;DHT22;13692;47.480;19.216;2023-03-01T00:08:40;5.40;99.90
25877;DHT22;13692;47.480;19.216;2023-03-01T00:13:40;5.40;99.90
25877;DHT22;13692;47.480;19.216;2023-03-01T00:16:28;5.40;99.90
25877;DHT22;13692;47.480;19.216;2023-03-01T00:18:57;5.50;99.90
25877;DHT22;13692;47.480;19.216;2023-03-01T00:21:25;5.50;99.90
25877;DHT22;13692;47.480;19.216;2023-03-01T00:23:53;5.50;99.90
25877;DHT22;13692;47.480;19.216;2023-03-01T00:26:22;5.60;99.90
25877;DHT22;13692;47.480;19.216;2023-03-01T00:28:50;5.50;99.90
25877;DHT22;13692;47.480;19.216;2023-03-01T00:31:25;5.50;99.90
25877;DHT22;13692;47.480;19.216;2023-03-01T00:33:54;5.50;99.90
25877;DHT22;13692;47.480;19.216;2023-03-01T00:36:31;5.50;99.90
25877;DHT22;13692;47.480;19.216;2023-03-01T00:38:58;5.50;99.90
25877;DHT22;13692;47.480;19.216;2023-03-01T00:41:26;5.50;99.90
25877;DHT22;13692;47.480;19.216;2023-03-01T00:43:54;5.50;99.90
25877;DHT22;13692;47.480;19.216;2023-03-01T00:46:24;5.60;99.90
25877;DHT22;13692;47.480;19.216;2023-03-01T00:48:52;5.70;99.90
25877;DHT22;13692;47.480;19.216;2023-03-01T00:51:24;5.70;99.90
25877;DHT22;13692;47.480;19.216;2023-03-01T00:53:54;5.70;99.90
25877;DHT22;13692;47.480;19.216;2023-03-01T00:56:21;5.80;99.90
25877;DHT22;13692;47.480;19.216;2023-03-01T00:58:49;5.80;99.90
25877;DHT22;13692;47.480;19.216;2023-03-01T01:01:19;5.80;99.90
25877;DHT22;13692;47.480;19.216;2023-03-01T01:03:49;5.80;99.90
25877;DHT22;13692;47.480;19.216;2023-03-01T01:06:22;5.80;99.90
25877;DHT22;13692;47.480;19.216;2023-03-01T01:08:50;5.80;99.90
25877;DHT22;13692;47.480;19.216;2023-03-01T01:11:18;5.80;99.90
25877;DHT22;13692;47.480;19.216;2023-03-01T01:13:46;5.80;99.90
25877;DHT22;13692;47.480;19.216;2023-03-01T01:16:17;5.70;99.90
25877;DHT22;13692;47.480;19.216;2023-03-01T01:18:45;5.80;99.90
25877;DHT22;13692;47.480;19.216;2023-03-01T01:21:15;5.80;99.90
25877;DHT22;13692;47.480;19.216;2023-03-01T01:23:44;5.80;99.90
25877;DHT22;13692;47.480;19.216;2023-03-01T01:26:17;5.70;99.90
25877;DHT22;13692;47.480;19.216;2023-03-01T01:28:45;5.70;99.90
25877;DHT22;13692;47.480;19.216;2023-03-01T01:31:12;5.60;99.90
25877;DHT22;13692;47.480;19.216;2023-03-01T01:33:39;5.60;99.90
25877;DHT22;13692;47.480;19.216;2023-03-01T01:36:07;5.50;99.90
25877;DHT22;13692;47.480;19.216;2023-03-01T01:38:35;5.60;99.90
25877;DHT22;13692;47.480;19.216;2023-03-01T01:41:03;5.60;99.90
25877;DHT22;13692;47.480;19.216;2023-03-01T01:43:43;5.60;99.90
25877;DHT22;13692;47.480;19.216;2023-03-01T01:48:46;5.60;99.90
25877;DHT22;13692;47.480;19.216;2023-03-01T01:51:17;5.70;99.90
25877;DHT22;13692;47.480;19.216;2023-03-01T01:53:48;5.70;99.90
25877;DHT22;13692;47.480;19.216;2023-03-01T01:56:17;5.70;99.90
25877;DHT22;13692;47.480;19.216;2023-03-01T01:58:45;5.60;99.90
25877;DHT22;13692;47.480;19.216;2023-03-01T02:01:14;5.50;99.90
25877;DHT22;13692;47.480;19.216;2023-03-01T02:03:42;5.50;99.90
25877;DHT22;13692;47.480;19.216;2023-03-01T02:09:02;5.50;99.90
25877;DHT22;13692;47.480;19.216;2023-03-01T02:11:31;5.50;99.90
25877;DHT22;13692;47.480;19.216;2023-03-01T02:13:59;5.50;99.90
25877;DHT22;13692;47.480;19.216;2023-03-01T02:16:26;5.50;99.90
25877;DHT22;13692;47.480;19.216;2023-03-01T02:18:54;5.60;99.90
25877;DHT22;13692;47.480;19.216;2023-03-01T02:23:54;5.60;99.90
25877;DHT22;13692;47.480;19.216;2023-03-01T02:29:05;5.60;99.90
25877;DHT22;13692;47.480;19.216;2023-03-01T02:31:32;5.60;99.90
25877;DHT22;13692;47.480;19.216;2023-03-01T02:34:20;5.60;99.90
25877;DHT22;13692;47.480;19.216;2023-03-01T02:36:56;5.60;99.90
25877;DHT22;13692;47.480;19.216;2023-03-01T02:39:34;5.50;99.90
25877;DHT22;13692;47.480;19.216;2023-03-01T02:42:04;5.50;99.90
25877;DHT22;13692;47.480;19.216;2023-03-01T02:44:32;5.50;99.90
25877;DHT22;13692;47.480;19.216;2023-03-01T02:47:02;5.40;99.90
25877;DHT22;13692;47.480;19.216;2023-03-01T02:49:33;5.40;99.90
25877;DHT22;13692;47.480;19.216;2023-03-01T02:55:13;5.40;99.90
25877;DHT22;13692;47.480;19.216;2023-03-01T02:57:43;5.40;99.90
25877;DHT22;13692;47.480;19.216;2023-03-01T03:00:17;5.40;99.90
25877;DHT22;13692;47.480;19.216;2023-03-01T03:02:53;5.40;99.90
25877;DHT22;13692;47.480;19.216;2023-03-01T03:05:28;5.30;99.90
25877;DHT22;13692;47.480;19.216;2023-03-01T03:07:56;5.30;99.90
25877;DHT22;13692;47.480;19.216;2023-03-01T03:12:56;5.40;99.90
25877;DHT22;13692;47.480;19.216;2023-03-01T03:15:25;5.40;99.90
25877;DHT22;13692;47.480;19.216;2023-03-01T03:17:53;5.40;99.90
25877;DHT22;13692;47.480;19.216;2023-03-01T03:20:23;5.40;99.90
25877;DHT22;13692;47.480;19.216;2023-03-01T03:22:52;5.40;99.90
25877;DHT22;13692;47.480;19.216;2023-03-01T03:25:20;5.40;99.90
25877;DHT22;13692;47.480;19.216;2023-03-01T03:27:48;5.30;99.90
25877;DHT22;13692;47.480;19.216;2023-03-01T03:30:18;5.30;99.90
25877;DHT22;13692;47.480;19.216;2023-03-01T03:32:47;5.30;99.90
25877;DHT22;13692;47.480;19.216;2023-03-01T03:35:30;5.30;99.90
25877;DHT22;13692;47.480;19.216;2023-03-01T03:38:01;5.30;99.90
25877;DHT22;13692;47.480;19.216;2023-03-01T03:40:54;5.30;99.90
25877;DHT22;13692;47.480;19.216;2023-03-01T03:43:29;5.30;99.90
25877;DHT22;13692;47.480;19.216;2023-03-01T03:45:56;5.20;99.90
25877;DHT22;13692;47.480;19.216;2023-03-01T03:48:25;5.10;99.90
25877;DHT22;13692;47.480;19.216;2023-03-01T03:50:54;5.10;99.90
25877;DHT22;13692;47.480;19.216;2023-03-01T03:53:23;5.00;99.90
25877;DHT22;13692;47.480;19.216;2023-03-01T03:55:50;5.00;99.90
25877;DHT22;13692;47.480;19.216;2023-03-01T03:58:19;5.00;99.90
25877;DHT22;13692;47.480;19.216;2023-03-01T04:00:49;5.10;99.90
25877;DHT22;13692;47.480;19.216;2023-03-01T04:03:18;5.10;99.90
25877;DHT22;13692;47.480;19.216;2023-03-01T04:05:46;5.10;99.90
25877;DHT22;13692;47.480;19.216;2023-03-01T04:08:14;5.10;99.90
25877;DHT22;13692;47.480;19.216;2023-03-01T04:10:44;5.00;99.90
25877;DHT22;13692;47.480;19.216;2023-03-01T04:13:13;5.10;99.90
25877;DHT22;13692;47.480;19.216;2023-03-01T04:15:40;5.10;99.90
25877;DHT22;13692;47.480;19.216;2023-03-01T04:18:12;5.10;99.90
25877;DHT22;13692;47.480;19.216;2023-03-01T04:20:40;5.20;99.90
25877;DHT22;13692;47.480;19.216;2023-03-01T04:23:13;5.20;99.90
25877;DHT22;13692;47.480;19.216;2023-03-01T04:25:49;5.30;99.90
25877;DHT22;13692;47.480;19.216;2023-03-01T04:28:22;5.30;99.90
25877;DHT22;13692;47.480;19.216;2023-03-01T04:30:52;5.20;99.90
25877;DHT22;13692;47.480;19.216;2023-03-01T04:33:20;5.20;99.90
25877;DHT22;13692;47.480;19.216;2023-03-01T04:35:47;5.20;99.90
25877;DHT22;13692;47.480;19.216;2023-03-01T04:38:17;5.20;99.90
25877;DHT22;13692;47.480;19.216;2023-03-01T04:40:45;5.10;99.90
25877;DHT22;13692;47.480;19.216;2023-03-01T04:43:12;5.20;99.90
25877;DHT22;13692;47.480;19.216;2023-03-01T04:45:42;5.30;99.90
25877;DHT22;13692;47.480;19.216;2023-03-01T04:48:09;5.30;99.90
25877;DHT22;13692;47.480;19.216;2023-03-01T04:50:36;5.40;99.90
25877;DHT22;13692;47.480;19.216;2023-03-01T04:53:03;5.40;99.90
25877;DHT22;13692;47.480;19.216;2023-03-01T04:55:30;5.40;99.90
25877;DHT22;13692;47.480;19.216;2023-03-01T04:57:58;5.40;99.90
25877;DHT22;13692;47.480;19.216;2023-03-01T05:00:25;5.40;99.90
25877;DHT22;13692;47.480;19.216;2023-03-01T05:02:57;5.30;99.90
25877;DHT22;13692;47.480;19.216;2023-03-01T05:05:31;5.30;99.90
25877;DHT22;13692;47.480;19.216;2023-03-01T05:08:00;5.20;99.90
25877;DHT22;13692;47.480;19.216;2023-03-01T05:10:29;5.20;99.90
25877;DHT22;13692;47.480;19.216;2023-03-01T05:12:57;5.30;99.90
25877;DHT22;13692;47.480;19.216;2023-03-01T05:15:26;5.30;99.90
25877;DHT22;13692;47.480;19.216;2023-03-01T05:17:56;5.40;99.90
25877;DHT22;13692;47.480;19.216;2023-03-01T05:20:27;5.40;99.90
25877;DHT22;13692;47.480;19.216;2023-03-01T05:22:57;5.40;99.90
25877;DHT22;13692;47.480;19.216;2023-03-01T05:25:26;5.40;99.90
25877;DHT22;13692;47.480;19.216;2023-03-01T05:27:53;5.40;99.90
25877;DHT22;13692;47.480;19.216;2023-03-01T05:30:20;5.30;99.90
25877;DHT22;13692;47.480;19.216;2023-03-01T05:32:49;5.30;99.90
25877;DHT22;13692;47.480;19.216;2023-03-01T05:35:23;5.30;99.90
25877;DHT22;13692;47.480;19.216;2023-03-01T05:37:50;5.20;99.90
25877;DHT22;13692;47.480;19.216;2023-03-01T05:40:20;5.20;99.90
25877;DHT22;13692;47.480;19.216;2023-03-01T05:42:53;5.20;99.90
25877;DHT22;13692;47.480;19.216;2023-03-01T05:45:22;5.30;99.90
25877;DHT22;13692;47.480;19.216;2023-03-01T05:47:50;5.30;99.90
25877;DHT22;13692;47.480;19.216;2023-03-01T05:50:26;5.30;99.90
25877;DHT22;13692;47.480;19.216;2023-03-01T05:53:01;5.40;99.90
25877;DHT22;13692;47.480;19.216;2023-03-01T05:55:29;5.40;99.90
25877;DHT22;13692;47.480;19.216;2023-03-01T05:58:07;5.40;99.90
25877;DHT22;13692;47.480;19.216;2023-03-01T06:00:35;5.40;99.90
25877;DHT22;13692;47.480;19.216;2023-03-01T06:03:02;5.50;99.90
25877;DHT22;13692;47.480;19.216;2023-03-01T06:05:29;5.50;99.90
25877;DHT22;13692;47.480;19.216;2023-03-01T06:07:59;5.50;99.90
25877;DHT22;13692;47.480;19.216;2023-03-01T06:10:27;5.50;99.90
25877;DHT22;13692;47.480;19.216;2023-03-01T06:12:54;5.50;99.90
25877;DHT22;13692;47.480;19.216;2023-03-01T06:15:21;5.50;99.90
25877;DHT22;13692;47.480;19.216;2023-03-01T06:17:49;5.40;99.90
25877;DHT22;13692;47.480;19.216;2023-03-01T06:20:18;5.50;99.90
25877;DHT22;13692;47.480;19.216;2023-03-01T06:22:46;5.50;99.90
25877;DHT22;13692;47.480;19.216;2023-03-01T06:25:15;5.50;99.90
25877;DHT22;13692;47.480;19.216;2023-03-01T06:27:43;5.60;99.90
25877;DHT22;13692;47.480;19.216;2023-03-01T06:30:12;5.70;99.90
25877;DHT22;13692;47.480;19.216;2023-03-01T06:32:41;5.70;99.90
25877;DHT22;13692;47.480;19.216;2023-03-01T06:35:12;5.80;99.90
25877;DHT22;13692;47.480;19.216;2023-03-01T06:37:40;5.80;99.90
25877;DHT22;13692;47.480;19.216;2023-03-01T06:40:08;5.80;99.90
25877;DHT22;13692;47.480;19.216;2023-03-01T06:42:36;5.70;99.90
25877;DHT22;13692;47.480;19.216;2023-03-01T06:45:04;5.80;99.90
25877;DHT22;13692;47.480;19.216;2023-03-01T06:47:32;5.80;99.90
25877;DHT22;13692;47.480;19.216;2023-03-01T06:50:00;5.90;99.90
25877;DHT22;13692;47.480;19.216;2023-03-01T06:52:27;5.90;99.90
25877;DHT22;13692;47.480;19.216;2023-03-01T06:54:54;5.80;99.90
25877;DHT22;13692;47.480;19.216;2023-03-01T06:57:21;6.00;99.90
25877;DHT22;13692;47.480;19.216;2023-03-01T06:59:48;6.00;99.90
25877;DHT22;13692;47.480;19.216;2023-03-01T07:02:16;6.10;99.90
25877;DHT22;13692;47.480;19.216;2023-03-01T07:04:43;6.10;99.90
25877;DHT22;13692;47.480;19.216;2023-03-01T07:07:11;6.10;99.90
25877;DHT22;13692;47.480;19.216;2023-03-01T07:09:38;6.10;99.90
25877;DHT22;13692;47.480;19.216;2023-03-01T07:12:05;6.10;99.90
25877;DHT22;13692;47.480;19.216;2023-03-01T07:14:32;6.20;99.90
25877;DHT22;13692;47.480;19.216;2023-03-01T07:16:59;6.20;99.90
25877;DHT22;13692;47.480;19.216;2023-03-01T07:19:26;6.20;99.90
25877;DHT22;13692;47.480;19.216;2023-03-01T07:21:53;6.30;99.90
25877;DHT22;13692;47.480;19.216;2023-03-01T07:24:22;6.30;99.90
25877;DHT22;13692;47.480;19.216;2023-03-01T07:26:50;6.40;99.90
25877;DHT22;13692;47.480;19.216;2023-03-01T07:29:18;6.50;99.90
25877;DHT22;13692;47.480;19.216;2023-03-01T07:31:45;6.60;99.90
25877;DHT22;13692;47.480;19.216;2023-03-01T07:34:12;6.60;99.90
25877;DHT22;13692;47.480;19.216;2023-03-01T07:36:39;6.70;99.90
25877;DHT22;13692;47.480;19.216;2023-03-01T07:39:10;6.80;99.90
25877;DHT22;13692;47.480;19.216;2023-03-01T07:41:37;6.90;99.90
25877;DHT22;13692;47.480;19.216;2023-03-01T07:44:04;7.00;99.90
25877;DHT22;13692;47.480;19.216;2023-03-01T07:46:31;7.00;99.90
25877;DHT22;13692;47.480;19.216;2023-03-01T07:48:58;7.00;99.90
25877;DHT22;13692;47.480;19.216;2023-03-01T07:51:25;7.00;99.90
25877;DHT22;13692;47.480;19.216;2023-03-01T07:53:52;7.00;99.90
25877;DHT22;13692;47.480;19.216;2023-03-01T07:56:19;6.90;99.90
25877;DHT22;13692;47.480;19.216;2023-03-01T07:58:48;6.90;99.90
25877;DHT22;13692;47.480;19.216;2023-03-01T08:01:19;7.00;99.90
25877;DHT22;13692;47.480;19.216;2023-03-01T08:03:46;7.10;99.90
25877;DHT22;13692;47.480;19.216;2023-03-01T08:06:15;7.20;99.90
25877;DHT22;13692;47.480;19.216;2023-03-01T08:08:42;7.40;99.90
25877;DHT22;13692;47.480;19.216;2023-03-01T08:11:14;7.80;99.90
25877;DHT22;13692;47.480;19.216;2023-03-01T08:13:42;8.00;99.90
25877;DHT22;13692;47.480;19.216;2023-03-01T08:16:14;8.10;99.90
25877;DHT22;13692;47.480;19.216;2023-03-01T08:18:43;8.00;99.90
25877;DHT22;13692;47.480;19.216;2023-03-01T08:21:15;8.00;99.90
25877;DHT22;13692;47.480;19.216;2023-03-01T08:23:43;8.30;99.90
25877;DHT22;13692;47.480;19.216;2023-03-01T08:26:14;8.20;99.90
25877;DHT22;13692;47.480;19.216;2023-03-01T08:28:42;8.30;99.90
25877;DHT22;13692;47.480;19.216;2023-03-01T08:33:53;8.50;99.90
25877;DHT22;13692;47.480;19.216;2023-03-01T08:36:29;8.60;99.90
25877;DHT22;13692;47.480;19.216;2023-03-01T08:38:57;8.60;99.90
25877;DHT22;13692;47.480;19.216;2023-03-01T08:41:24;8.70;99.90
25877;DHT22;13692;47.480;19.216;2023-03-01T08:43:51;8.80;99.90
25877;DHT22;13692;47.480;19.216;2023-03-01T08:46:19;8.80;99.90
25877;DHT22;13692;47.480;19.216;2023-03-01T08:48:46;8.70;99.90
25877;DHT22;13692;47.480;19.216;2023-03-01T08:51:16;8.80;99.90
25877;DHT22;13692;47.480;19.216;2023-03-01T08:53:45;8.80;99.90
25877;DHT22;13692;47.480;19.216;2023-03-01T08:56:13;9.00;99.90
25877;DHT22;13692;47.480;19.216;2023-03-01T08:58:46;9.20;99.90
25877;DHT22;13692;47.480;19.216;2023-03-01T09:01:16;9.70;99.90
25877;DHT22;13692;47.480;19.216;2023-03-01T09:03:43;10.00;99.90
25877;DHT22;13692;47.480;19.216;2023-03-01T09:06:11;10.10;99.90
25877;DHT22;13692;47.480;19.216;2023-03-01T09:08:40;10.20;99.90
25877;DHT22;13692;47.480;19.216;2023-03-01T09:11:08;10.70;99.90
25877;DHT22;13692;47.480;19.216;2023-03-01T09:13:36;10.90;99.90
25877;DHT22;13692;47.480;19.216;2023-03-01T09:16:06;10.80;99.90
25877;DHT22;13692;47.480;19.216;2023-03-01T09:18:33;10.70;99.90
25877;DHT22;13692;47.480;19.216;2023-03-01T09:21:20;10.60;99.90
25877;DHT22;13692;47.480;19.216;2023-03-01T09:24:04;10.50;99.90
25877;DHT22;13692;47.480;19.216;2023-03-01T09:26:31;11.30;99.90
25877;DHT22;13692;47.480;19.216;2023-03-01T09:28:59;11.80;98.60
25877;DHT22;13692;47.480;19.216;2023-03-01T09:31:26;12.10;97.40
25877;DHT22;13692;47.480;19.216;2023-03-01T09:33:53;12.00;97.50
25877;DHT22;13692;47.480;19.216;2023-03-01T09:36:22;12.30;97.00
25877;DHT22;13692;47.480;19.216;2023-03-01T09:38:50;12.60;96.20
25877;DHT22;13692;47.480;19.216;2023-03-01T09:43:52;13.10;93.80
25877;DHT22;13692;47.480;19.216;2023-03-01T09:46:23;13.00;93.80
25877;DHT22;13692;47.480;19.216;2023-03-01T09:49:13;13.00;93.80
25877;DHT22;13692;47.480;19.216;2023-03-01T09:52:14;12.90;93.50
25877;DHT22;13692;47.480;19.216;2023-03-01T09:54:47;12.70;93.80
25877;DHT22;13692;47.480;19.216;2023-03-01T09:57:26;12.70;93.20
25877;DHT22;13692;47.480;19.216;2023-03-01T10:02:58;12.60;93.60
25877;DHT22;13692;47.480;19.216;2023-03-01T10:05:34;12.80;92.90
25877;DHT22;13692;47.480;19.216;2023-03-01T10:10:49;12.90;92.60
25877;DHT22;13692;47.480;19.216;2023-03-01T10:13:42;13.00;92.20
25877;DHT22;13692;47.480;19.216;2023-03-01T10:16:16;13.00;91.80
25877;DHT22;13692;47.480;19.216;2023-03-01T10:18:47;12.80;92.10
25877;DHT22;13692;47.480;19.216;2023-03-01T10:21:19;12.80;92.80
25877;DHT22;13692;47.480;19.216;2023-03-01T10:23:49;12.90;92.00
25877;DHT22;13692;47.480;19.216;2023-03-01T10:26:38;12.90;92.10
25877;DHT22;13692;47.480;19.216;2023-03-01T10:29:09;12.60;92.40
25877;DHT22;13692;47.480;19.216;2023-03-01T10:31:51;12.60;92.80
25877;DHT22;13692;47.480;19.216;2023-03-01T10:34:28;12.60;93.60
25877;DHT22;13692;47.480;19.216;2023-03-01T10:42:38;12.70;93.40
25877;DHT22;13692;47.480;19.216;2023-03-01T10:50:41;13.30;93.50
25877;DHT22;13692;47.480;19.216;2023-03-01T10:53:30;13.50;92.70
25877;DHT22;13692;47.480;19.216;2023-03-01T10:58:30;13.10;92.70
25877;DHT22;13692;47.480;19.216;2023-03-01T11:03:42;12.80;93.40
25877;DHT22;13692;47.480;19.216;2023-03-01T11:08:45;12.60;93.90
25877;DHT22;13692;47.480;19.216;2023-03-01T11:11:32;12.50;94.60
25877;DHT22;13692;47.480;19.216;2023-03-01T11:14:05;12.40;94.80
25877;DHT22;13692;47.480;19.216;2023-03-01T11:17:30;12.40;94.60
25877;DHT22;13692;47.480;19.216;2023-03-01T11:25:14;12.00;95.40
25877;DHT22;13692;47.480;19.216;2023-03-01T11:27:44;12.00;95.40
25877;DHT22;13692;47.480;19.216;2023-03-01T11:30:27;12.00;95.60
25877;DHT22;13692;47.480;19.216;2023-03-01T11:33:18;12.10;95.40
25877;DHT22;13692;47.480;19.216;2023-03-01T11:36:16;12.00;96.00
25877;DHT22;13692;47.480;19.216;2023-03-01T11:38:46;11.80;95.90
25877;DHT22;13692;47.480;19.216;2023-03-01T11:41:20;11.80;95.90
25877;DHT22;13692;47.480;19.216;2023-03-01T11:55:14;11.80;95.90
25877;DHT22;13692;47.480;19.216;2023-03-01T11:57:52;11.90;96.10
25877;DHT22;13692;47.480;19.216;2023-03-01T12:03:28;12.10;96.40
25877;DHT22;13692;47.480;19.216;2023-03-01T12:15:17;11.80;96.50
25877;DHT22;13692;47.480;19.216;2023-03-01T12:23:05;12.00;96.30
25877;DHT22;13692;47.480;19.216;2023-03-01T12:25:55;12.10;96.40
25877;DHT22;13692;47.480;19.216;2023-03-01T12:32:06;12.00;96.40
25877;DHT22;13692;47.480;19.216;2023-03-01T12:50:52;12.00;97.60
25877;DHT22;13692;47.480;19.216;2023-03-01T12:56:00;12.10;97.50
25877;DHT22;13692;47.480;19.216;2023-03-01T13:07:29;12.10;97.30
25877;DHT22;13692;47.480;19.216;2023-03-01T13:17:53;11.90;97.00
25877;DHT22;13692;47.480;19.216;2023-03-01T13:20:25;11.90;97.30
25877;DHT22;13692;47.480;19.216;2023-03-01T13:31:07;12.10;97.30
25877;DHT22;13692;47.480;19.216;2023-03-01T13:33:50;12.00;97.50
25877;DHT22;13692;47.480;19.216;2023-03-01T13:47:16;12.00;97.70
25877;DHT22;13692;47.480;19.216;2023-03-01T13:50:03;12.00;97.50
25877;DHT22;13692;47.480;19.216;2023-03-01T13:55:38;12.00;98.10
25877;DHT22;13692;47.480;19.216;2023-03-01T14:03:28;12.00;98.10
25877;DHT22;13692;47.480;19.216;2023-03-01T14:08:42;12.00;98.10
25877;DHT22;13692;47.480;19.216;2023-03-01T14:19:47;12.00;98.50
25877;DHT22;13692;47.480;19.216;2023-03-01T14:25:19;12.00;98.50
25877;DHT22;13692;47.480;19.216;2023-03-01T14:27:54;12.00;98.40
25877;DHT22;13692;47.480;19.216;2023-03-01T14:30:25;12.00;98.50
25877;DHT22;13692;47.480;19.216;2023-03-01T14:33:04;12.00;98.50
25877;DHT22;13692;47.480;19.216;2023-03-01T14:35:34;11.90;98.50
25877;DHT22;13692;47.480;19.216;2023-03-01T14:38:03;11.90;98.70
25877;DHT22;13692;47.480;19.216;2023-03-01T14:40:34;11.90;98.60
25877;DHT22;13692;47.480;19.216;2023-03-01T14:43:09;11.80;98.50
25877;DHT22;13692;47.480;19.216;2023-03-01T14:45:37;11.80;98.90
25877;DHT22;13692;47.480;19.216;2023-03-01T14:48:06;11.80;98.80
25877;DHT22;13692;47.480;19.216;2023-03-01T14:50:35;11.90;98.70
25877;DHT22;13692;47.480;19.216;2023-03-01T14:53:04;11.80;98.40
25877;DHT22;13692;47.480;19.216;2023-03-01T14:55:38;11.80;98.50
25877;DHT22;13692;47.480;19.216;2023-03-01T14:58:15;11.80;98.50
25877;DHT22;13692;47.480;19.216;2023-03-01T15:00:53;11.80;98.70
25877;DHT22;13692;47.480;19.216;2023-03-01T15:05:51;11.70;98.40
25877;DHT22;13692;47.480;19.216;2023-03-01T15:08:23;11.70;98.70
25877;DHT22;13692;47.480;19.216;2023-03-01T15:13:40;11.60;98.80
25877;DHT22;13692;47.480;19.216;2023-03-01T15:16:15;11.50;98.80
25877;DHT22;13692;47.480;19.216;2023-03-01T15:18:55;11.50;99.00
25877;DHT22;13692;47.480;19.216;2023-03-01T15:21:26;11.50;98.90
25877;DHT22;13692;47.480;19.216;2023-03-01T15:26:39;11.50;98.80
25877;DHT22;13692;47.480;19.216;2023-03-01T15:29:18;11.50;98.80
25877;DHT22;13692;47.480;19.216;2023-03-01T15:32:01;11.40;99.20
25877;DHT22;13692;47.480;19.216;2023-03-01T15:34:38;11.40;99.20
25877;DHT22;13692;47.480;19.216;2023-03-01T15:37:32;11.30;99.00
25877;DHT22;13692;47.480;19.216;2023-03-01T15:39:55;11.30;99.10
25877;DHT22;13692;47.480;19.216;2023-03-01T15:47:48;11.30;99.40
25877;DHT22;13692;47.480;19.216;2023-03-01T15:50:25;11.30;99.40
25877;DHT22;13692;47.480;19.216;2023-03-01T15:52:53;11.30;99.30
25877;DHT22;13692;47.480;19.216;2023-03-01T15:55:28;11.20;99.50
25877;DHT22;13692;47.480;19.216;2023-03-01T16:01:01;11.10;99.80
25877;DHT22;13692;47.480;19.216;2023-03-01T16:03:28;11.10;99.90
25877;DHT22;13692;47.480;19.216;2023-03-01T16:05:55;11.00;99.80
25877;DHT22;13692;47.480;19.216;2023-03-01T16:08:23;11.00;99.90
25877;DHT22;13692;47.480;19.216;2023-03-01T16:10:50;10.90;99.90
25877;DHT22;13692;47.480;19.216;2023-03-01T16:13:18;10.90;99.90
25877;DHT22;13692;47.480;19.216;2023-03-01T16:15:46;10.90;99.90
25877;DHT22;13692;47.480;19.216;2023-03-01T16:18:13;10.90;99.90
25877;DHT22;13692;47.480;19.216;2023-03-01T16:20:41;10.80;99.90
25877;DHT22;13692;47.480;19.216;2023-03-01T16:23:10;10.80;99.90
25877;DHT22;13692;47.480;19.216;2023-03-01T16:25:37;10.70;99.90
25877;DHT22;13692;47.480;19.216;2023-03-01T16:28:04;10.70;99.90
25877;DHT22;13692;47.480;19.216;2023-03-01T16:30:39;10.60;99.90
25877;DHT22;13692;47.480;19.216;2023-03-01T16:33:07;10.60;99.90
25877;DHT22;13692;47.480;19.216;2023-03-01T16:35:55;10.50;99.90
25877;DHT22;13692;47.480;19.216;2023-03-01T16:38:26;10.40;99.90
25877;DHT22;13692;47.480;19.216;2023-03-01T16:40:53;10.30;99.90
25877;DHT22;13692;47.480;19.216;2023-03-01T16:43:20;10.30;99.90
25877;DHT22;13692;47.480;19.216;2023-03-01T16:45:47;10.20;99.90
25877;DHT22;13692;47.480;19.216;2023-03-01T16:48:15;10.10;99.90
25877;DHT22;13692;47.480;19.216;2023-03-01T16:50:42;10.00;99.90
25877;DHT22;13692;47.480;19.216;2023-03-01T16:53:09;10.00;99.90
25877;DHT22;13692;47.480;19.216;2023-03-01T16:55:36;9.90;99.90
25877;DHT22;13692;47.480;19.216;2023-03-01T16:58:05;9.90;99.90
25877;DHT22;13692;47.480;19.216;2023-03-01T17:00:32;9.80;99.90
25877;DHT22;13692;47.480;19.216;2023-03-01T17:02:59;9.70;99.90
25877;DHT22;13692;47.480;19.216;2023-03-01T17:05:29;9.70;99.90
25877;DHT22;13692;47.480;19.216;2023-03-01T17:07:56;9.60;99.90
25877;DHT22;13692;47.480;19.216;2023-03-01T17:10:24;9.60;99.90
25877;DHT22;13692;47.480;19.216;2023-03-01T17:12:51;9.50;99.90
25877;DHT22;13692;47.480;19.216;2023-03-01T17:15:18;9.50;99.90
25877;DHT22;13692;47.480;19.216;2023-03-01T17:17:46;9.40;99.90
25877;DHT22;13692;47.480;19.216;2023-03-01T17:20:17;9.30;99.90
25877;DHT22;13692;47.480;19.216;2023-03-01T17:22:46;9.30;99.90
25877;DHT22;13692;47.480;19.216;2023-03-01T17:25:13;9.30;99.90
25877;DHT22;13692;47.480;19.216;2023-03-01T17:27:42;9.20;99.90
25877;DHT22;13692;47.480;19.216;2023-03-01T17:30:11;9.10;99.90
25877;DHT22;13692;47.480;19.216;2023-03-01T17:32:39;9.10;99.90
25877;DHT22;13692;47.480;19.216;2023-03-01T17:35:08;9.00;99.90
25877;DHT22;13692;47.480;19.216;2023-03-01T17:37:39;8.90;99.90
25877;DHT22;13692;47.480;19.216;2023-03-01T17:40:08;8.90;99.90
25877;DHT22;13692;47.480;19.216;2023-03-01T17:42:36;8.90;99.90
25877;DHT22;13692;47.480;19.216;2023-03-01T17:45:03;8.80;99.90
25877;DHT22;13692;47.480;19.216;2023-03-01T17:47:31;8.80;99.90
25877;DHT22;13692;47.480;19.216;2023-03-01T17:49:58;8.80;99.90
25877;DHT22;13692;47.480;19.216;2023-03-01T17:52:26;8.70;99.90
25877;DHT22;13692;47.480;19.216;2023-03-01T17:54:54;8.70;99.90
25877;DHT22;13692;47.480;19.216;2023-03-01T17:57:21;8.60;99.90
25877;DHT22;13692;47.480;19.216;2023-03-01T17:59:48;8.50;99.90
25877;DHT22;13692;47.480;19.216;2023-03-01T18:02:16;8.40;99.90
25877;DHT22;13692;47.480;19.216;2023-03-01T18:04:45;8.30;99.90
25877;DHT22;13692;47.480;19.216;2023-03-01T18:07:12;8.10;99.90
25877;DHT22;13692;47.480;19.216;2023-03-01T18:09:40;8.00;99.90
25877;DHT22;13692;47.480;19.216;2023-03-01T18:12:08;7.90;99.90
25877;DHT22;13692;47.480;19.216;2023-03-01T18:14:36;7.80;99.90
25877;DHT22;13692;47.480;19.216;2023-03-01T18:17:04;7.70;99.90
25877;DHT22;13692;47.480;19.216;2023-03-01T18:19:39;7.60;99.90
25877;DHT22;13692;47.480;19.216;2023-03-01T18:22:08;7.50;99.90
25877;DHT22;13692;47.480;19.216;2023-03-01T18:24:37;7.40;99.90
25877;DHT22;13692;47.480;19.216;2023-03-01T18:27:05;7.30;99.90
25877;DHT22;13692;47.480;19.216;2023-03-01T18:29:32;7.30;99.90
25877;DHT22;13692;47.480;19.216;2023-03-01T18:32:03;7.30;99.90
25877;DHT22;13692;47.480;19.216;2023-03-01T18:34:31;7.30;99.90
25877;DHT22;13692;47.480;19.216;2023-03-01T18:37:04;7.20;99.90
25877;DHT22;13692;47.480;19.216;2023-03-01T18:39:36;7.10;99.90
25877;DHT22;13692;47.480;19.216;2023-03-01T18:42:05;7.00;99.90
25877;DHT22;13692;47.480;19.216;2023-03-01T18:44:33;6.90;99.90
25877;DHT22;13692;47.480;19.216;2023-03-01T18:47:01;6.80;99.90